sensor_id;sensor_type;location;lat;lon;timestamp;pressure;altitude;pressure_sealevel;temperature;humidity
37972;BME280;23794;48.234;8.344;2023-05-18T00:00:23;94777.53;;;3.46;75.63
37972;BME280;23794;48.234;8.344;2023-05-18T00:02:50;94777.78;;;3.40;75.57
37972;BME280;23794;48.234;8.344;2023-05-18T00:05:16;94775.84;;;3.41;75.74
37972;BME280;23794;48.234;8.344;2023-05-18T00:07:46;94775.06;;;3.40;75.69
37972;BME280;23794;48.234;8.344;2023-05-18T00:10:12;94769.97;;;3.39;75.88
37972;BME280;23794;48.234;8.344;2023-05-18T00:12:41;94768.72;;;3.36;75.83
37972;BME280;23794;48.234;8.344;2023-05-18T00:15:11;94771.78;;;3.35;76.70
37972;BME280;23794;48.234;8.344;2023-05-18T00:17:47;94764.22;;;3.28;76.53
37972;BME280;23794;48.234;8.344;2023-05-18T00:20:19;94764.00;;;3.33;76.03
37972;BME280;23794;48.234;8.344;2023-05-18T00:22:47;94768.63;;;3.33;76.08
37972;BME280;23794;48.234;8.344;2023-05-18T00:25:16;94758.69;;;3.37;75.13
37972;BME280;23794;48.234;8.344;2023-05-18T00:27:42;94757.78;;;3.33;75.83
37972;BME280;23794;48.234;8.344;2023-05-18T00:30:09;94761.50;;;3.28;76.40
37972;BME280;23794;48.234;8.344;2023-05-18T00:32:38;94756.34;;;3.23;76.76
37972;BME280;23794;48.234;8.344;2023-05-18T00:35:05;94752.16;;;3.25;75.75
37972;BME280;23794;48.234;8.344;2023-05-18T00:37:32;94750.94;;;3.23;76.14
37972;BME280;23794;48.234;8.344;2023-05-18T00:39:58;94753.63;;;3.23;76.16
37972;BME280;23794;48.234;8.344;2023-05-18T00:42:25;94759.28;;;3.18;76.22
37972;BME280;23794;48.234;8.344;2023-05-18T00:44:52;94754.44;;;3.11;76.33
37972;BME280;23794;48.234;8.344;2023-05-18T00:47:18;94756.00;;;3.12;75.58
37972;BME280;23794;48.234;8.344;2023-05-18T00:49:46;94749.16;;;3.02;76.15
37972;BME280;23794;48.234;8.344;2023-05-18T00:52:14;94760.63;;;2.99;76.29
37972;BME280;23794;48.234;8.344;2023-05-18T00:54:42;94747.44;;;2.97;76.68
37972;BME280;23794;48.234;8.344;2023-05-18T00:57:09;94748.47;;;2.93;76.43
37972;BME280;23794;48.234;8.344;2023-05-18T00:59:36;94750.03;;;2.94;76.90
37972;BME280;23794;48.234;8.344;2023-05-18T01:02:03;94742.38;;;2.96;76.96
37972;BME280;23794;48.234;8.344;2023-05-18T01:04:29;94742.03;;;2.97;76.87
37972;BME280;23794;48.234;8.344;2023-05-18T01:06:57;94734.94;;;2.93;76.69
37972;BME280;23794;48.234;8.344;2023-05-18T01:09:32;94728.75;;;2.92;76.98
37972;BME280;23794;48.234;8.344;2023-05-18T01:12:18;94740.44;;;2.96;76.82
37972;BME280;23794;48.234;8.344;2023-05-18T01:15:07;94735.38;;;2.95;77.30
37972;BME280;23794;48.234;8.344;2023-05-18T01:17:44;94750.03;;;2.94;77.73
37972;BME280;23794;48.234;8.344;2023-05-18T01:20:30;94737.72;;;3.09;76.43
37972;BME280;23794;48.234;8.344;2023-05-18T01:25:49;94739.69;;;2.96;76.58
37972;BME280;23794;48.234;8.344;2023-05-18T01:28:23;94732.22;;;2.93;76.43
37972;BME280;23794;48.234;8.344;2023-05-18T01:31:03;94722.41;;;2.88;77.00
37972;BME280;23794;48.234;8.344;2023-05-18T01:33:32;94731.88;;;2.82;77.26
37972;BME280;23794;48.234;8.344;2023-05-18T01:36:00;94733.78;;;2.81;77.15
37972;BME280;23794;48.234;8.344;2023-05-18T01:38:27;94727.13;;;2.79;76.86
37972;BME280;23794;48.234;8.344;2023-05-18T01:41:10;94725.13;;;2.76;77.22
37972;BME280;23794;48.234;8.344;2023-05-18T01:43:46;94722.84;;;2.78;76.66
37972;BME280;23794;48.234;8.344;2023-05-18T01:46:27;94722.63;;;2.71;76.75
37972;BME280;23794;48.234;8.344;2023-05-18T01:49:10;94713.97;;;2.65;77.99
37972;BME280;23794;48.234;8.344;2023-05-18T01:51:43;94720.25;;;2.69;77.77
37972;BME280;23794;48.234;8.344;2023-05-18T01:54:10;94716.22;;;2.63;78.17
37972;BME280;23794;48.234;8.344;2023-05-18T01:56:38;94719.81;;;2.67;77.76
37972;BME280;23794;48.234;8.344;2023-05-18T01:59:06;94712.38;;;2.76;78.06
37972;BME280;23794;48.234;8.344;2023-05-18T02:01:33;94705.94;;;2.81;77.47
37972;BME280;23794;48.234;8.344;2023-05-18T02:04:00;94704.47;;;2.84;77.23
37972;BME280;23794;48.234;8.344;2023-05-18T02:06:28;94704.47;;;2.84;76.93
37972;BME280;23794;48.234;8.344;2023-05-18T02:08:55;94701.66;;;2.80;77.14
37972;BME280;23794;48.234;8.344;2023-05-18T02:11:22;94701.78;;;2.71;78.07
37972;BME280;23794;48.234;8.344;2023-05-18T02:13:49;94697.63;;;2.74;77.98
37972;BME280;23794;48.234;8.344;2023-05-18T02:16:16;94690.06;;;2.79;77.55
37972;BME280;23794;48.234;8.344;2023-05-18T02:18:43;94691.19;;;2.78;77.46
37972;BME280;23794;48.234;8.344;2023-05-18T02:21:10;94696.50;;;2.75;77.52
37972;BME280;23794;48.234;8.344;2023-05-18T02:23:36;94696.13;;;2.76;77.58
37972;BME280;23794;48.234;8.344;2023-05-18T02:26:06;94690.94;;;2.84;77.14
37972;BME280;23794;48.234;8.344;2023-05-18T02:28:32;94687.78;;;2.81;77.75
37972;BME280;23794;48.234;8.344;2023-05-18T02:31:06;94691.97;;;2.79;77.23
37972;BME280;23794;48.234;8.344;2023-05-18T02:33:34;94691.41;;;2.86;76.49
37972;BME280;23794;48.234;8.344;2023-05-18T02:36:09;94693.91;;;2.78;76.90
37972;BME280;23794;48.234;8.344;2023-05-18T02:38:42;94693.09;;;2.78;77.18
37972;BME280;23794;48.234;8.344;2023-05-18T02:41:10;94702.78;;;2.79;77.03
37972;BME280;23794;48.234;8.344;2023-05-18T02:43:37;94689.59;;;2.77;76.25
37972;BME280;23794;48.234;8.344;2023-05-18T02:46:05;94686.91;;;2.77;77.00
37972;BME280;23794;48.234;8.344;2023-05-18T02:48:33;94691.19;;;2.78;76.84
37972;BME280;23794;48.234;8.344;2023-05-18T02:50:59;94692.09;;;2.70;77.35
37972;BME280;23794;48.234;8.344;2023-05-18T02:53:26;94698.16;;;2.67;77.41
37972;BME280;23794;48.234;8.344;2023-05-18T02:55:59;94689.94;;;2.63;77.34
37972;BME280;23794;48.234;8.344;2023-05-18T02:58:38;94694.03;;;2.70;76.65
37972;BME280;23794;48.234;8.344;2023-05-18T03:01:09;94692.75;;;2.67;77.78
37972;BME280;23794;48.234;8.344;2023-05-18T03:03:44;94685.09;;;2.69;77.58
37972;BME280;23794;48.234;8.344;2023-05-18T03:06:10;94687.81;;;2.69;76.88
37972;BME280;23794;48.234;8.344;2023-05-18T03:08:37;94694.56;;;2.63;77.11
37972;BME280;23794;48.234;8.344;2023-05-18T03:11:08;94684.53;;;2.63;77.08
37972;BME280;23794;48.234;8.344;2023-05-18T03:13:34;94677.34;;;2.68;77.45
37972;BME280;23794;48.234;8.344;2023-05-18T03:16:01;94687.34;;;2.67;77.15
37972;BME280;23794;48.234;8.344;2023-05-18T03:18:28;94691.97;;;2.67;76.63
37972;BME280;23794;48.234;8.344;2023-05-18T03:20:54;94689.28;;;2.67;76.53
37972;BME280;23794;48.234;8.344;2023-05-18T03:23:21;94682.97;;;2.62;76.69
37972;BME280;23794;48.234;8.344;2023-05-18T03:25:49;94687.25;;;2.51;77.92
37972;BME280;23794;48.234;8.344;2023-05-18T03:28:20;94689.28;;;2.54;77.45
37972;BME280;23794;48.234;8.344;2023-05-18T03:30:48;94689.72;;;2.56;77.17
37972;BME280;23794;48.234;8.344;2023-05-18T03:33:14;94682.41;;;2.57;77.30
37972;BME280;23794;48.234;8.344;2023-05-18T03:35:42;94685.78;;;2.54;77.39
37972;BME280;23794;48.234;8.344;2023-05-18T03:38:09;94687.59;;;2.49;76.91
37972;BME280;23794;48.234;8.344;2023-05-18T03:40:39;94692.66;;;2.51;77.62
37972;BME280;23794;48.234;8.344;2023-05-18T03:43:06;94694.22;;;2.52;77.58
37972;BME280;23794;48.234;8.344;2023-05-18T03:45:34;94687.59;;;2.49;77.30
37972;BME280;23794;48.234;8.344;2023-05-18T03:48:01;94694.22;;;2.52;77.11
37972;BME280;23794;48.234;8.344;2023-05-18T03:50:28;94695.13;;;2.56;76.96
37972;BME280;23794;48.234;8.344;2023-05-18T03:52:56;94689.38;;;2.45;77.83
37972;BME280;23794;48.234;8.344;2023-05-18T03:55:24;94691.63;;;2.43;77.74
37972;BME280;23794;48.234;8.344;2023-05-18T03:57:53;94696.47;;;2.50;76.80
37972;BME280;23794;48.234;8.344;2023-05-18T04:00:20;94698.94;;;2.43;77.92
37972;BME280;23794;48.234;8.344;2023-05-18T04:02:47;94701.75;;;2.46;76.96
37972;BME280;23794;48.234;8.344;2023-05-18T04:05:21;94704.13;;;2.48;77.09
37972;BME280;23794;48.234;8.344;2023-05-18T04:07:48;94703.81;;;2.49;76.82
37972;BME280;23794;48.234;8.344;2023-05-18T04:10:17;94704.47;;;2.46;77.56
37972;BME280;23794;48.234;8.344;2023-05-18T04:12:45;94695.69;;;2.49;77.05
37972;BME280;23794;48.234;8.344;2023-05-18T04:15:12;94702.22;;;2.48;76.92
37972;BME280;23794;48.234;8.344;2023-05-18T04:17:41;94705.94;;;2.56;76.88
37972;BME280;23794;48.234;8.344;2023-05-18T04:20:12;94703.22;;;2.56;77.46
37972;BME280;23794;48.234;8.344;2023-05-18T04:22:44;94709.56;;;2.60;77.12
37972;BME280;23794;48.234;8.344;2023-05-18T04:25:13;94708.88;;;2.63;76.93
37972;BME280;23794;48.234;8.344;2023-05-18T04:27:41;94711.91;;;2.62;77.03
37972;BME280;23794;48.234;8.344;2023-05-18T04:30:08;94708.97;;;2.67;76.95
37972;BME280;23794;48.234;8.344;2023-05-18T04:32:39;94711.69;;;2.67;77.17
37972;BME280;23794;48.234;8.344;2023-05-18T04:35:09;94712.38;;;2.76;76.96
37972;BME280;23794;48.234;8.344;2023-05-18T04:37:38;94714.31;;;2.76;77.12
37972;BME280;23794;48.234;8.344;2023-05-18T04:40:12;94714.53;;;2.83;76.87
37972;BME280;23794;48.234;8.344;2023-05-18T04:42:40;94713.06;;;2.86;76.70
37972;BME280;23794;48.234;8.344;2023-05-18T04:45:17;94715.41;;;2.87;76.76
37972;BME280;23794;48.234;8.344;2023-05-18T04:47:47;94707.66;;;2.86;77.15
37972;BME280;23794;48.234;8.344;2023-05-18T04:50:20;94707.19;;;2.84;77.62
37972;BME280;23794;48.234;8.344;2023-05-18T04:52:50;94714.41;;;2.92;77.75
37972;BME280;23794;48.234;8.344;2023-05-18T04:55:21;94711.34;;;3.06;76.67
37972;BME280;23794;48.234;8.344;2023-05-18T04:58:02;94715.97;;;3.18;75.94
37972;BME280;23794;48.234;8.344;2023-05-18T05:00:30;94716.41;;;3.07;77.31
37972;BME280;23794;48.234;8.344;2023-05-18T05:02:57;94719.91;;;3.20;77.28
37972;BME280;23794;48.234;8.344;2023-05-18T05:05:25;94726.41;;;3.32;76.29
37972;BME280;23794;48.234;8.344;2023-05-18T05:07:53;94725.28;;;3.33;76.05
37972;BME280;23794;48.234;8.344;2023-05-18T05:10:20;94728.81;;;3.33;76.77
37972;BME280;23794;48.234;8.344;2023-05-18T05:12:48;94721.00;;;3.44;76.47
37972;BME280;23794;48.234;8.344;2023-05-18T05:15:16;94725.50;;;3.52;76.14
37972;BME280;23794;48.234;8.344;2023-05-18T05:17:45;94727.19;;;3.57;76.03
37972;BME280;23794;48.234;8.344;2023-05-18T05:20:12;94721.59;;;3.66;75.63
37972;BME280;23794;48.234;8.344;2023-05-18T05:22:39;94731.22;;;3.63;76.14
37972;BME280;23794;48.234;8.344;2023-05-18T05:25:08;94728.25;;;3.68;76.09
37972;BME280;23794;48.234;8.344;2023-05-18T05:27:35;94728.81;;;3.74;76.04
37972;BME280;23794;48.234;8.344;2023-05-18T05:30:03;94726.84;;;3.87;75.43
37972;BME280;23794;48.234;8.344;2023-05-18T05:32:32;94722.31;;;3.91;75.73
37972;BME280;23794;48.234;8.344;2023-05-18T05:34:59;94725.22;;;3.98;74.98
37972;BME280;23794;48.234;8.344;2023-05-18T05:37:27;94720.34;;;4.04;75.21
37972;BME280;23794;48.234;8.344;2023-05-18T05:39:54;94718.25;;;4.13;74.06
37972;BME280;23794;48.234;8.344;2023-05-18T05:42:21;94724.38;;;4.26;74.35
37972;BME280;23794;48.234;8.344;2023-05-18T05:44:48;94722.47;;;4.27;73.01
37972;BME280;23794;48.234;8.344;2023-05-18T05:47:15;94726.59;;;4.36;72.80
37972;BME280;23794;48.234;8.344;2023-05-18T05:49:47;94721.09;;;4.49;72.87
37972;BME280;23794;48.234;8.344;2023-05-18T05:52:15;94716.38;;;4.62;73.41
37972;BME280;23794;48.234;8.344;2023-05-18T05:54:41;94724.09;;;4.76;72.55
37972;BME280;23794;48.234;8.344;2023-05-18T05:57:09;94728.28;;;4.89;73.20
37972;BME280;23794;48.234;8.344;2023-05-18T05:59:36;94726.63;;;5.00;71.80
37972;BME280;23794;48.234;8.344;2023-05-18T06:02:03;94724.19;;;5.11;72.21
37972;BME280;23794;48.234;8.344;2023-05-18T06:04:30;94729.78;;;5.18;71.37
37972;BME280;23794;48.234;8.344;2023-05-18T06:06:58;94723.53;;;5.18;71.09
37972;BME280;23794;48.234;8.344;2023-05-18T06:09:27;94725.78;;;5.32;72.15
37972;BME280;23794;48.234;8.344;2023-05-18T06:11:55;94724.88;;;5.44;70.75
37972;BME280;23794;48.234;8.344;2023-05-18T06:14:22;94726.25;;;5.54;69.85
37972;BME280;23794;48.234;8.344;2023-05-18T06:16:50;94722.25;;;5.67;69.39
37972;BME280;23794;48.234;8.344;2023-05-18T06:19:19;94715.06;;;5.75;68.01
37972;BME280;23794;48.234;8.344;2023-05-18T06:21:48;94714.13;;;5.87;68.54
37972;BME280;23794;48.234;8.344;2023-05-18T06:24:15;94719.63;;;6.10;68.57
37972;BME280;23794;48.234;8.344;2023-05-18T06:27:08;94710.75;;;6.13;67.19
37972;BME280;23794;48.234;8.344;2023-05-18T06:29:44;94721.53;;;6.29;66.91
37972;BME280;23794;48.234;8.344;2023-05-18T06:32:34;94719.13;;;6.47;65.69
37972;BME280;23794;48.234;8.344;2023-05-18T06:35:04;94721.66;;;6.59;66.43
37972;BME280;23794;48.234;8.344;2023-05-18T06:37:34;94714.03;;;6.69;65.47
37972;BME280;23794;48.234;8.344;2023-05-18T06:40:00;94717.06;;;6.87;66.69
37972;BME280;23794;48.234;8.344;2023-05-18T06:42:30;94713.03;;;6.77;63.80
37972;BME280;23794;48.234;8.344;2023-05-18T06:45:23;94722.88;;;6.85;64.03
37972;BME280;23794;48.234;8.344;2023-05-18T06:47:53;94717.91;;;6.68;63.94
37972;BME280;23794;48.234;8.344;2023-05-18T06:50:20;94722.81;;;6.82;65.13
37972;BME280;23794;48.234;8.344;2023-05-18T06:52:47;94719.44;;;6.88;64.30
37972;BME280;23794;48.234;8.344;2023-05-18T06:55:13;94723.09;;;7.00;64.93
37972;BME280;23794;48.234;8.344;2023-05-18T06:57:41;94718.88;;;7.29;65.27
37972;BME280;23794;48.234;8.344;2023-05-18T07:00:08;94725.50;;;7.55;64.22
37972;BME280;23794;48.234;8.344;2023-05-18T07:02:38;94722.66;;;7.48;62.91
37972;BME280;23794;48.234;8.344;2023-05-18T07:05:06;94724.44;;;7.63;64.00
37972;BME280;23794;48.234;8.344;2023-05-18T07:07:37;94727.63;;;7.69;63.03
37972;BME280;23794;48.234;8.344;2023-05-18T07:10:04;94729.31;;;7.77;62.84
37972;BME280;23794;48.234;8.344;2023-05-18T07:12:31;94727.81;;;7.83;62.23
37972;BME280;23794;48.234;8.344;2023-05-18T07:14:57;94732.59;;;7.90;61.08
37972;BME280;23794;48.234;8.344;2023-05-18T07:17:24;94726.47;;;7.70;60.97
37972;BME280;23794;48.234;8.344;2023-05-18T07:19:51;94730.56;;;7.53;62.97
37972;BME280;23794;48.234;8.344;2023-05-18T07:22:17;94731.09;;;7.66;62.51
37972;BME280;23794;48.234;8.344;2023-05-18T07:24:44;94719.59;;;7.80;62.54
37972;BME280;23794;48.234;8.344;2023-05-18T07:27:11;94716.00;;;8.06;61.64
37972;BME280;23794;48.234;8.344;2023-05-18T07:29:41;94728.25;;;8.19;61.27
37972;BME280;23794;48.234;8.344;2023-05-18T07:32:08;94722.41;;;8.17;61.07
37972;BME280;23794;48.234;8.344;2023-05-18T07:34:35;94730.44;;;8.07;59.98
37972;BME280;23794;48.234;8.344;2023-05-18T07:37:01;94723.69;;;7.97;60.58
37972;BME280;23794;48.234;8.344;2023-05-18T07:39:28;94719.69;;;8.21;61.26
37972;BME280;23794;48.234;8.344;2023-05-18T07:41:55;94726.25;;;8.54;61.13
37972;BME280;23794;48.234;8.344;2023-05-18T07:44:21;94724.84;;;8.71;59.80
37972;BME280;23794;48.234;8.344;2023-05-18T07:46:48;94714.31;;;8.70;58.40
37972;BME280;23794;48.234;8.344;2023-05-18T07:49:15;94719.13;;;8.83;60.67
37972;BME280;23794;48.234;8.344;2023-05-18T07:51:41;94714.50;;;8.91;58.90
37972;BME280;23794;48.234;8.344;2023-05-18T07:54:08;94727.91;;;9.07;58.58
37972;BME280;23794;48.234;8.344;2023-05-18T07:56:35;94717.03;;;9.14;58.20
37972;BME280;23794;48.234;8.344;2023-05-18T07:59:02;94727.19;;;9.18;58.30
37972;BME280;23794;48.234;8.344;2023-05-18T08:01:28;94723.78;;;9.28;58.21
37972;BME280;23794;48.234;8.344;2023-05-18T08:03:55;94719.63;;;9.49;57.28
37972;BME280;23794;48.234;8.344;2023-05-18T08:06:24;94719.97;;;9.40;56.89
37972;BME280;23794;48.234;8.344;2023-05-18T08:08:51;94716.44;;;9.39;57.87
37972;BME280;23794;48.234;8.344;2023-05-18T08:11:18;94722.91;;;9.72;59.22
37972;BME280;23794;48.234;8.344;2023-05-18T08:13:44;94730.03;;;9.91;55.46
37972;BME280;23794;48.234;8.344;2023-05-18T08:16:11;94736.88;;;9.53;56.95
37972;BME280;23794;48.234;8.344;2023-05-18T08:18:38;94729.66;;;9.30;58.17
37972;BME280;23794;48.234;8.344;2023-05-18T08:21:06;94732.66;;;9.70;57.70
37972;BME280;23794;48.234;8.344;2023-05-18T08:23:36;94722.56;;;9.85;56.95
37972;BME280;23794;48.234;8.344;2023-05-18T08:26:03;94730.72;;;9.77;56.84
37972;BME280;23794;48.234;8.344;2023-05-18T08:28:30;94730.78;;;9.88;57.60
37972;BME280;23794;48.234;8.344;2023-05-18T08:30:57;94733.97;;;9.98;57.39
37972;BME280;23794;48.234;8.344;2023-05-18T08:33:24;94728.97;;;10.18;56.00
37972;BME280;23794;48.234;8.344;2023-05-18T08:35:51;94720.03;;;10.35;55.90
37972;BME280;23794;48.234;8.344;2023-05-18T08:38:17;94718.66;;;9.86;56.12
37972;BME280;23794;48.234;8.344;2023-05-18T08:40:52;94732.06;;;10.09;57.02
37972;BME280;23794;48.234;8.344;2023-05-18T08:43:24;94724.00;;;10.60;55.07
37972;BME280;23794;48.234;8.344;2023-05-18T08:46:12;94720.13;;;10.93;53.64
37972;BME280;23794;48.234;8.344;2023-05-18T08:48:44;94724.88;;;11.00;53.29
37972;BME280;23794;48.234;8.344;2023-05-18T08:51:12;94725.19;;;10.80;53.54
37972;BME280;23794;48.234;8.344;2023-05-18T08:53:53;94720.50;;;10.73;53.84
37972;BME280;23794;48.234;8.344;2023-05-18T08:56:23;94713.50;;;11.05;54.77
37972;BME280;23794;48.234;8.344;2023-05-18T08:58:54;94722.50;;;11.13;53.81
37972;BME280;23794;48.234;8.344;2023-05-18T09:01:24;94725.59;;;10.93;53.13
37972;BME280;23794;48.234;8.344;2023-05-18T09:03:55;94716.19;;;10.80;53.61
37972;BME280;23794;48.234;8.344;2023-05-18T09:06:23;94722.09;;;10.89;53.70
37972;BME280;23794;48.234;8.344;2023-05-18T09:08:52;94715.06;;;11.35;53.71
37972;BME280;23794;48.234;8.344;2023-05-18T09:11:21;94714.22;;;11.67;51.77
37972;BME280;23794;48.234;8.344;2023-05-18T09:13:48;94715.31;;;11.98;51.28
37972;BME280;23794;48.234;8.344;2023-05-18T09:16:18;94705.13;;;11.84;52.69
37972;BME280;23794;48.234;8.344;2023-05-18T09:18:44;94709.69;;;12.24;50.57
37972;BME280;23794;48.234;8.344;2023-05-18T09:21:12;94702.59;;;12.30;50.23
37972;BME280;23794;48.234;8.344;2023-05-18T09:23:38;94702.78;;;11.87;51.68
37972;BME280;23794;48.234;8.344;2023-05-18T09:26:07;94709.00;;;12.05;51.48
37972;BME280;23794;48.234;8.344;2023-05-18T09:28:38;94707.53;;;11.82;51.95
37972;BME280;23794;48.234;8.344;2023-05-18T09:31:07;94707.59;;;11.39;52.07
37972;BME280;23794;48.234;8.344;2023-05-18T09:33:36;94699.78;;;11.23;52.98
37972;BME280;23794;48.234;8.344;2023-05-18T09:36:04;94706.34;;;11.69;52.27
37972;BME280;23794;48.234;8.344;2023-05-18T09:38:40;94710.63;;;11.99;51.33
37972;BME280;23794;48.234;8.344;2023-05-18T09:41:15;94703.66;;;11.55;50.76
37972;BME280;23794;48.234;8.344;2023-05-18T09:43:48;94706.75;;;11.71;51.11
37972;BME280;23794;48.234;8.344;2023-05-18T09:46:14;94691.78;;;11.94;50.71
37972;BME280;23794;48.234;8.344;2023-05-18T09:48:44;94687.84;;;12.02;50.33
37972;BME280;23794;48.234;8.344;2023-05-18T09:51:12;94696.66;;;12.50;49.03
37972;BME280;23794;48.234;8.344;2023-05-18T09:53:46;94702.47;;;12.62;48.61
37972;BME280;23794;48.234;8.344;2023-05-18T09:56:16;94700.41;;;12.77;49.07
37972;BME280;23794;48.234;8.344;2023-05-18T09:58:43;94680.44;;;12.70;49.13
37972;BME280;23794;48.234;8.344;2023-05-18T10:01:10;94691.94;;;12.50;49.09
37972;BME280;23794;48.234;8.344;2023-05-18T10:03:39;94690.75;;;12.51;48.84
37972;BME280;23794;48.234;8.344;2023-05-18T10:06:08;94688.84;;;12.34;50.40
37972;BME280;23794;48.234;8.344;2023-05-18T10:08:36;94687.19;;;12.61;48.31
37972;BME280;23794;48.234;8.344;2023-05-18T10:11:03;94696.81;;;12.17;48.87
37972;BME280;23794;48.234;8.344;2023-05-18T10:13:30;94688.00;;;12.55;50.17
37972;BME280;23794;48.234;8.344;2023-05-18T10:15:59;94695.88;;;12.45;49.24
37972;BME280;23794;48.234;8.344;2023-05-18T10:18:28;94692.91;;;12.04;49.32
37972;BME280;23794;48.234;8.344;2023-05-18T10:20:59;94690.81;;;12.40;49.08
37972;BME280;23794;48.234;8.344;2023-05-18T10:23:30;94692.38;;;12.38;49.45
37972;BME280;23794;48.234;8.344;2023-05-18T10:25:57;94681.97;;;11.93;48.66
37972;BME280;23794;48.234;8.344;2023-05-18T10:28:30;94683.88;;;12.14;49.37
37972;BME280;23794;48.234;8.344;2023-05-18T10:30:59;94693.19;;;12.98;50.17
37972;BME280;23794;48.234;8.344;2023-05-18T10:33:27;94680.78;;;13.70;48.11
37972;BME280;23794;48.234;8.344;2023-05-18T10:35:56;94676.22;;;14.25;47.08
37972;BME280;23794;48.234;8.344;2023-05-18T10:38:25;94681.44;;;13.81;45.42
37972;BME280;23794;48.234;8.344;2023-05-18T10:40:56;94662.38;;;13.21;45.84
37972;BME280;23794;48.234;8.344;2023-05-18T10:43:25;94675.19;;;13.35;46.78
37972;BME280;23794;48.234;8.344;2023-05-18T10:45:55;94678.09;;;13.59;47.69
37972;BME280;23794;48.234;8.344;2023-05-18T10:48:23;94669.94;;;13.90;44.56
37972;BME280;23794;48.234;8.344;2023-05-18T10:50:52;94685.66;;;13.93;45.96
37972;BME280;23794;48.234;8.344;2023-05-18T10:53:21;94675.31;;;13.63;44.39
37972;BME280;23794;48.234;8.344;2023-05-18T10:55:49;94676.59;;;13.51;46.64
37972;BME280;23794;48.234;8.344;2023-05-18T10:58:20;94670.31;;;13.92;45.79
37972;BME280;23794;48.234;8.344;2023-05-18T11:00:59;94666.06;;;14.18;45.39
37972;BME280;23794;48.234;8.344;2023-05-18T11:03:26;94670.72;;;14.25;45.25
37972;BME280;23794;48.234;8.344;2023-05-18T11:08:32;94667.25;;;15.03;43.66
37972;BME280;23794;48.234;8.344;2023-05-18T11:11:00;94667.63;;;15.49;42.88
37972;BME280;23794;48.234;8.344;2023-05-18T11:13:32;94666.94;;;15.45;42.66
37972;BME280;23794;48.234;8.344;2023-05-18T11:18:39;94678.81;;;14.36;44.45
37972;BME280;23794;48.234;8.344;2023-05-18T11:26:41;94659.91;;;14.93;42.52
37972;BME280;23794;48.234;8.344;2023-05-18T11:31:45;94655.63;;;15.59;42.55
37972;BME280;23794;48.234;8.344;2023-05-18T11:34:44;94643.66;;;15.46;40.38
37972;BME280;23794;48.234;8.344;2023-05-18T11:37:15;94653.63;;;14.65;42.87
37972;BME280;23794;48.234;8.344;2023-05-18T11:39:55;94650.00;;;14.95;42.95
37972;BME280;23794;48.234;8.344;2023-05-18T11:42:32;94652.00;;;16.06;42.09
37972;BME280;23794;48.234;8.344;2023-05-18T11:45:06;94661.44;;;16.46;40.39
37972;BME280;23794;48.234;8.344;2023-05-18T11:47:34;94641.63;;;15.90;39.60
37972;BME280;23794;48.234;8.344;2023-05-18T11:50:05;94636.59;;;16.25;39.43
37972;BME280;23794;48.234;8.344;2023-05-18T11:52:32;94634.97;;;17.14;39.12
37972;BME280;23794;48.234;8.344;2023-05-18T11:55:12;94641.75;;;16.97;37.72
37972;BME280;23794;48.234;8.344;2023-05-18T11:57:41;94645.72;;;16.42;38.60
37972;BME280;23794;48.234;8.344;2023-05-18T12:00:10;94638.09;;;15.90;39.83
37972;BME280;23794;48.234;8.344;2023-05-18T12:02:46;94645.44;;;15.76;41.81
37972;BME280;23794;48.234;8.344;2023-05-18T12:05:13;94651.34;;;15.78;39.90
37972;BME280;23794;48.234;8.344;2023-05-18T12:07:40;94632.09;;;15.31;40.45
37972;BME280;23794;48.234;8.344;2023-05-18T12:10:10;94647.72;;;15.61;39.83
37972;BME280;23794;48.234;8.344;2023-05-18T12:12:37;94656.69;;;16.09;39.44
37972;BME280;23794;48.234;8.344;2023-05-18T12:15:08;94636.94;;;16.64;38.90
37972;BME280;23794;48.234;8.344;2023-05-18T12:17:42;94621.72;;;16.56;37.87
37972;BME280;23794;48.234;8.344;2023-05-18T12:20:10;94641.75;;;16.43;38.89
37972;BME280;23794;48.234;8.344;2023-05-18T12:22:38;94634.72;;;16.02;39.01
37972;BME280;23794;48.234;8.344;2023-05-18T12:25:06;94633.25;;;15.54;39.98
37972;BME280;23794;48.234;8.344;2023-05-18T12:27:37;94639.97;;;15.53;39.51
37972;BME280;23794;48.234;8.344;2023-05-18T12:30:08;94632.75;;;15.39;40.19
37972;BME280;23794;48.234;8.344;2023-05-18T12:32:37;94640.91;;;15.66;40.77
37972;BME280;23794;48.234;8.344;2023-05-18T12:35:04;94629.16;;;15.82;40.02
37972;BME280;23794;48.234;8.344;2023-05-18T12:37:43;94633.00;;;15.88;38.56
37972;BME280;23794;48.234;8.344;2023-05-18T12:40:18;94623.34;;;16.37;39.63
37972;BME280;23794;48.234;8.344;2023-05-18T12:42:55;94630.53;;;16.51;37.05
37972;BME280;23794;48.234;8.344;2023-05-18T12:45:26;94621.03;;;15.75;38.77
37972;BME280;23794;48.234;8.344;2023-05-18T12:47:53;94630.47;;;15.34;40.13
37972;BME280;23794;48.234;8.344;2023-05-18T12:50:23;94629.81;;;15.26;39.55
37972;BME280;23794;48.234;8.344;2023-05-18T12:52:53;94631.78;;;15.25;40.36
37972;BME280;23794;48.234;8.344;2023-05-18T12:55:21;94643.44;;;15.13;39.42
37972;BME280;23794;48.234;8.344;2023-05-18T13:00:24;94631.41;;;15.47;40.83
37972;BME280;23794;48.234;8.344;2023-05-18T13:02:51;94631.59;;;15.36;39.76
37972;BME280;23794;48.234;8.344;2023-05-18T13:05:22;94623.59;;;15.42;40.69
37972;BME280;23794;48.234;8.344;2023-05-18T13:07:49;94636.72;;;15.58;39.82
37972;BME280;23794;48.234;8.344;2023-05-18T13:10:17;94633.50;;;15.39;39.65
37972;BME280;23794;48.234;8.344;2023-05-18T13:12:54;94632.06;;;15.55;40.14
37972;BME280;23794;48.234;8.344;2023-05-18T13:15:32;94626.34;;;15.86;40.33
37972;BME280;23794;48.234;8.344;2023-05-18T13:18:06;94627.81;;;15.90;39.24
37972;BME280;23794;48.234;8.344;2023-05-18T13:20:41;94633.50;;;15.83;38.74
37972;BME280;23794;48.234;8.344;2023-05-18T13:23:10;94627.38;;;15.08;38.93
37972;BME280;23794;48.234;8.344;2023-05-18T13:25:38;94633.97;;;15.14;39.92
37972;BME280;23794;48.234;8.344;2023-05-18T13:28:05;94635.78;;;15.44;41.53
37972;BME280;23794;48.234;8.344;2023-05-18T13:30:32;94629.66;;;15.57;39.62
37972;BME280;23794;48.234;8.344;2023-05-18T13:32:59;94625.03;;;15.94;40.43
37972;BME280;23794;48.234;8.344;2023-05-18T13:35:26;94633.00;;;16.08;39.15
37972;BME280;23794;48.234;8.344;2023-05-18T13:37:53;94629.09;;;15.66;38.67